Terminal Aerodrome Forecast
Issued by NWS Charleston, WV

Current Version | Previous Version | Graphics & Text | Print | Product List | Glossary On
Versions: 1 2 3 4 5 6 7 8 9 10 11 12 13 14 15 16 17 18 19 20 21 22 23 24 25 26 27 28 29 30 31 32 33
934
FTUS41 KRLX 191700
TAFCRW
TAF
KCRW 191740Z 1918/2018 27008G16KT P6SM SCT050
     FM200300 32005KT P6SM SCT050
     FM200900 VRB03KT 2SM BR SCT003 BKN010
     FM201300 32004KT P6SM SCT250=

USA.gov is the U.S. government's official web portal to all federal, state and local government web resources and services.